Airfield :







YOU CAN JOIN US ON...

 
LOGIN :

Register | Disclaimer

   EN    FR    IT 

 









Legend :    VFR   Marginal VFR   IFR   Intensive IFR   Very Intensive IFR
Visi :
Ceiling :
>= 8 km
>= 3000ft
5 to 8 km
1000 to 3000 ft
1500m to 5 km
500 to 1000 ft
800 to 1500m
200 to 500 ft
< 800m
< 200 ft
Symbols :   Thunderstorms  Fog  Heavy snow  Heavy precipitations  Wind > 20 kt







- Airport Elevation : 171 ft
- IATA code : KEF


BIKF - Keflavik International

CURRENT METAR :
  • 220830Z 34021KT 7000 -SN SCT009 OVC021 00/M00 Q0974 R01/520065

EXPIRED METARs :
  • 220800Z 35025KT 5000 -SN SCT007 BKN015 OVC036 00/M01 Q0974 R01/520065
  • 220730Z 36027KT 9999 VCSH FEW016 OVC095 00/M01 Q0974 R01/520065
  • 220700Z 35025KT 9999 FEW016 SCT033 BKN080 00/M01 Q0974 R01/520065
  • 220630Z 01022KT 9999 FEW013 BKN033 BKN070 01/M01 Q0974 R01/520065
  • 220600Z 36024KT 9999 BKN011 BKN060 00/M01 Q0975 R01/520065

TAF TAF BIKF
Valid from the 22 at 09:00 until the 23 at 09:00 UTC


220803Z 2209/2309 36025KT 4000 -SN SCT005 BKN010 OVC015 TX02/2214Z TNM00/2209Z
BECMG 2213/2215 27035G45KT 1000 SN BKN004 OVC008
TEMPO 2214/2217 0400 SN BLSN VV004
BECMG 2217/2219 5000 SHSN SCT010 BKN015
BECMG 2300/2303 27025KT 9999 -SHSN BKN020
BECMG 2306/2308 19025KT 3000 SN BKN010 OVC015
No reported NOTAMs for that airfield.



MET'MAP, your aeronautical weather chart ! - Copyright ORBIFLY December 2007 - Disclaimer

ORBIFLY MET'MAP TEAM :

Programming & Development : Alexandra Zaïnal
Concept & Development : Baudouin d'Aumeries
Co-Development & Prog : Marc-Olivier Méhu
Technical & hardware support : Manuel Goepfert

Contact : metmap@orbifly.com




SOURCES & CREDITS :

   NOAA